createdAt,value
2016-07-20T00:00:20.271Z,1012.21
2016-07-20T00:00:50.299Z,1012.23
2016-07-20T00:01:20.307Z,1012.22
2016-07-20T00:01:50.315Z,1012.23
2016-07-20T00:02:19.623Z,1012.2
2016-07-20T00:02:50.344Z,1012.19
2016-07-20T00:03:20.360Z,1012.2
2016-07-20T00:03:50.380Z,1012.17
2016-07-20T00:04:20.390Z,1012.17
2016-07-20T00:04:49.695Z,1012.15
2016-07-20T00:05:19.718Z,1012.17
2016-07-20T00:05:50.439Z,1012.15
2016-07-20T00:06:19.767Z,1012.14
2016-07-20T00:06:50.485Z,1012.13
2016-07-20T00:07:20.498Z,1012.1
2016-07-20T00:07:50.494Z,1012.07
2016-07-20T00:08:20.521Z,1012.11
2016-07-20T00:08:50.526Z,1012.12
2016-07-20T00:09:20.565Z,1012.1
2016-07-20T00:09:49.861Z,1012.06
2016-07-20T00:10:20.583Z,1012.12
2016-07-20T00:10:49.892Z,1012.13
2016-07-20T00:11:20.602Z,1012.08
2016-07-20T00:11:50.621Z,1012.12
2016-07-20T00:12:19.942Z,1012.07
2016-07-20T00:12:49.942Z,1012.08
2016-07-20T00:13:20.672Z,1012.07
2016-07-20T00:13:49.972Z,1012.06
2016-07-20T00:14:20.707Z,1012.07
2016-07-20T00:14:50.714Z,1012.09
2016-07-20T00:15:20.727Z,1012.04
2016-07-20T00:15:50.752Z,1012.06
2016-07-20T00:16:20.779Z,1012.05
2016-07-20T00:16:50.783Z,1012.04
2016-07-20T00:17:20.791Z,1012.07
2016-07-20T00:17:50.802Z,1012.03
2016-07-20T00:18:20.827Z,1012.05
2016-07-20T00:18:50.833Z,1012.06
2016-07-20T00:19:20.853Z,1012.04
2016-07-20T00:19:50.872Z,1012.01
2016-07-20T00:20:20.187Z,1012.03
2016-07-20T00:20:50.891Z,1012.01
2016-07-20T00:21:20.917Z,1012
2016-07-20T00:21:50.928Z,1012.04
2016-07-20T00:22:20.939Z,1012.02
2016-07-20T00:22:50.958Z,1012.05
2016-07-20T00:23:20.990Z,1012.02
2016-07-20T00:23:50.988Z,1012.04
2016-07-20T00:24:19.592Z,1012.05
2016-07-20T00:24:51.019Z,1012.04
2016-07-20T00:25:21.033Z,1012.04
2016-07-20T00:25:51.047Z,1012.05
2016-07-20T00:26:20.354Z,1012.01
2016-07-20T00:26:51.080Z,1012.08
2016-07-20T00:27:21.101Z,1012.03
2016-07-20T00:27:51.116Z,1012.05
2016-07-20T00:28:21.126Z,1012.02
2016-07-20T00:28:50.434Z,1012.07
2016-07-20T00:29:21.159Z,1012.04
2016-07-20T00:29:51.169Z,1012.07
2016-07-20T00:30:20.480Z,1012.07
2016-07-20T00:30:51.212Z,1012.06
2016-07-20T00:31:20.501Z,1012.08
2016-07-20T00:31:50.528Z,1012.08
2016-07-20T00:32:21.259Z,1012.11
2016-07-20T00:32:51.285Z,1012.1
2016-07-20T00:33:20.570Z,1012.1
2016-07-20T00:33:51.304Z,1012.12
2016-07-20T00:34:21.319Z,1012.1
2016-07-20T00:34:50.614Z,1012.12
2016-07-20T00:35:21.336Z,1012.13
2016-07-20T00:35:50.651Z,1012.13
2016-07-20T00:36:21.377Z,1012.11
2016-07-20T00:36:51.390Z,1012.14
2016-07-20T00:37:20.694Z,1012.12
2016-07-20T00:37:51.410Z,1012.12
2016-07-20T00:38:21.439Z,1012.13
2016-07-20T00:38:51.474Z,1012.12
2016-07-20T00:39:21.464Z,1012.12
2016-07-20T00:39:51.472Z,1012.12
2016-07-20T00:40:20.794Z,1012.12
2016-07-20T00:40:51.514Z,1012.11
2016-07-20T00:41:21.531Z,1012.14
2016-07-20T00:41:50.823Z,1012.1
2016-07-20T00:42:21.545Z,1012.12
2016-07-20T00:42:51.575Z,1012.11
2016-07-20T00:43:21.584Z,1012.13
2016-07-20T00:43:51.602Z,1012.05
2016-07-20T00:44:20.913Z,1012.08
2016-07-20T00:44:51.635Z,1012.11
2016-07-20T00:45:21.642Z,1012.09
2016-07-20T00:45:50.949Z,1012.11
2016-07-20T00:46:21.673Z,1012.09
2016-07-20T00:46:50.977Z,1012.09
2016-07-20T00:47:21.716Z,1012.09
2016-07-20T00:47:51.731Z,1012.08
2016-07-20T00:48:21.734Z,1012.08
2016-07-20T00:48:51.772Z,1012.09
2016-07-20T00:49:21.772Z,1012.06
2016-07-20T00:49:51.779Z,1012.07
2016-07-20T00:50:21.797Z,1012.06
2016-07-20T00:50:51.814Z,1012.08
2016-07-20T00:51:21.828Z,1012.04
2016-07-20T00:51:51.837Z,1012.08
2016-07-20T00:52:21.866Z,1012.06
2016-07-20T00:52:51.173Z,1012.02
2016-07-20T00:53:21.892Z,1012.01
2016-07-20T00:53:51.910Z,1012.02
2016-07-20T00:54:21.922Z,1011.99
2016-07-20T00:54:51.931Z,1011.98
2016-07-20T00:55:21.946Z,1011.97
2016-07-20T00:55:51.965Z,1011.96
2016-07-20T00:56:21.991Z,1011.92
2016-07-20T00:56:51.996Z,1011.97
2016-07-20T00:57:22.014Z,1011.95
2016-07-20T00:57:51.323Z,1011.95
2016-07-20T00:58:22.047Z,1011.95
2016-07-20T00:58:52.061Z,1011.95
2016-07-20T00:59:22.081Z,1011.92
2016-07-20T00:59:50.670Z,1011.9
2016-07-20T01:00:22.096Z,1011.92
2016-07-20T01:00:52.119Z,1011.93
2016-07-20T01:01:22.136Z,1011.88
2016-07-20T01:01:52.145Z,1011.93
2016-07-20T01:02:22.162Z,1011.9
2016-07-20T01:02:52.176Z,1011.89
2016-07-20T01:03:22.200Z,1011.85
2016-07-20T01:03:52.217Z,1011.88
2016-07-20T01:04:21.515Z,1011.88
2016-07-20T01:04:52.237Z,1011.87
2016-07-20T01:05:21.544Z,1011.87
2016-07-20T01:05:52.269Z,1011.86
2016-07-20T01:06:22.282Z,1011.85
2016-07-20T01:06:52.300Z,1011.8
2016-07-20T01:07:22.312Z,1011.84
2016-07-20T01:07:52.342Z,1011.83
2016-07-20T01:08:22.341Z,1011.83
2016-07-20T01:08:52.367Z,1011.84
2016-07-20T01:09:22.374Z,1011.82
2016-07-20T01:09:51.681Z,1011.84
2016-07-20T01:10:22.404Z,1011.84
2016-07-20T01:10:52.414Z,1011.82
2016-07-20T01:11:22.437Z,1011.82
2016-07-20T01:11:51.743Z,1011.82
2016-07-20T01:12:21.049Z,1011.82
2016-07-20T01:12:52.478Z,1011.8
2016-07-20T01:13:21.801Z,1011.78
2016-07-20T01:13:52.523Z,1011.81
2016-07-20T01:14:22.523Z,1011.82
2016-07-20T01:14:52.537Z,1011.81
2016-07-20T01:15:22.562Z,1011.79
2016-07-20T01:15:51.862Z,1011.77
2016-07-20T01:16:22.585Z,1011.81
2016-07-20T01:16:52.613Z,1011.77
2016-07-20T01:17:22.625Z,1011.8
2016-07-20T01:17:52.631Z,1011.77
2016-07-20T01:18:21.942Z,1011.75
2016-07-20T01:18:52.669Z,1011.77
2016-07-20T01:19:22.675Z,1011.77
2016-07-20T01:19:52.698Z,1011.71
2016-07-20T01:20:22.708Z,1011.75
2016-07-20T01:20:52.723Z,1011.76
2016-07-20T01:21:22.739Z,1011.77
2016-07-20T01:21:52.775Z,1011.77
2016-07-20T01:22:22.775Z,1011.74
2016-07-20T01:22:52.791Z,1011.76
2016-07-20T01:23:22.094Z,1011.76
2016-07-20T01:23:52.822Z,1011.7
2016-07-20T01:24:22.835Z,1011.74
2016-07-20T01:24:52.140Z,1011.72
2016-07-20T01:25:22.163Z,1011.73
2016-07-20T01:25:52.866Z,1011.73
2016-07-20T01:26:22.901Z,1011.72
2016-07-20T01:26:52.927Z,1011.72
2016-07-20T01:27:22.930Z,1011.71
2016-07-20T01:27:52.933Z,1011.72
2016-07-20T01:28:22.956Z,1011.7
2016-07-20T01:28:52.967Z,1011.68
2016-07-20T01:29:22.978Z,1011.69
2016-07-20T01:29:52.996Z,1011.69
2016-07-20T01:30:23.024Z,1011.69
2016-07-20T01:30:53.022Z,1011.67
2016-07-20T01:31:23.043Z,1011.66
2016-07-20T01:31:53.061Z,1011.68
2016-07-20T01:32:21.662Z,1011.68
2016-07-20T01:32:52.377Z,1011.64
2016-07-20T01:33:22.390Z,1011.64
2016-07-20T01:33:53.121Z,1011.65
2016-07-20T01:34:23.137Z,1011.65
2016-07-20T01:34:53.152Z,1011.64
2016-07-20T01:35:23.166Z,1011.63
2016-07-20T01:35:52.466Z,1011.59
2016-07-20T01:36:23.197Z,1011.61
2016-07-20T01:36:53.211Z,1011.57
2016-07-20T01:37:23.227Z,1011.61
2016-07-20T01:37:53.244Z,1011.6
2016-07-20T01:38:23.256Z,1011.59
2016-07-20T01:38:53.276Z,1011.53
2016-07-20T01:39:23.287Z,1011.54
2016-07-20T01:39:53.307Z,1011.55
2016-07-20T01:40:23.317Z,1011.56
2016-07-20T01:40:53.324Z,1011.58
2016-07-20T01:41:23.351Z,1011.55
2016-07-20T01:41:53.363Z,1011.54
2016-07-20T01:42:23.378Z,1011.57
2016-07-20T01:42:53.382Z,1011.51
2016-07-20T01:43:23.406Z,1011.51
2016-07-20T01:43:52.004Z,1011.54
2016-07-20T01:44:23.433Z,1011.53
2016-07-20T01:44:53.463Z,1011.52
2016-07-20T01:45:23.472Z,1011.48
2016-07-20T01:45:53.487Z,1011.49
2016-07-20T01:46:23.499Z,1011.52
2016-07-20T01:46:53.516Z,1011.47
2016-07-20T01:47:22.826Z,1011.48
2016-07-20T01:47:53.536Z,1011.5
2016-07-20T01:48:22.848Z,1011.45
2016-07-20T01:48:52.875Z,1011.49
2016-07-20T01:49:23.587Z,1011.48
2016-07-20T01:49:53.594Z,1011.47
2016-07-20T01:50:22.910Z,1011.47
2016-07-20T01:50:52.226Z,1011.47
2016-07-20T01:51:22.938Z,1011.47
2016-07-20T01:51:53.665Z,1011.45
2016-07-20T01:52:22.260Z,1011.41
2016-07-20T01:52:53.688Z,1011.46
2016-07-20T01:53:23.708Z,1011.43
2016-07-20T01:53:53.017Z,1011.44
2016-07-20T01:54:23.739Z,1011.42
2016-07-20T01:54:53.753Z,1011.41
2016-07-20T01:55:23.769Z,1011.41
2016-07-20T01:55:53.800Z,1011.43
2016-07-20T01:56:23.097Z,1011.42
2016-07-20T01:56:53.805Z,1011.4
2016-07-20T01:57:23.826Z,1011.39
2016-07-20T01:57:53.852Z,1011.39
2016-07-20T01:58:23.857Z,1011.36
2016-07-20T01:58:53.888Z,1011.37
2016-07-20T01:59:23.894Z,1011.39
2016-07-20T01:59:53.899Z,1011.37
2016-07-20T02:00:23.919Z,1011.36
2016-07-20T02:00:53.935Z,1011.37
2016-07-20T02:01:23.954Z,1011.38
2016-07-20T02:01:53.959Z,1011.34
2016-07-20T02:02:23.275Z,1011.36
2016-07-20T02:02:53.998Z,1011.34
2016-07-20T02:03:24.008Z,1011.35
2016-07-20T02:03:54.024Z,1011.3
2016-07-20T02:04:23.335Z,1011.31
2016-07-20T02:05:08.235Z,1011.31
2016-07-20T02:05:23.365Z,1011.31
2016-07-20T02:05:54.090Z,1011.3
2016-07-20T02:06:24.107Z,1011.32
2016-07-20T02:06:53.403Z,1011.32
2016-07-20T02:07:24.133Z,1011.3
2016-07-20T02:07:54.160Z,1011.31
2016-07-20T02:08:24.158Z,1011.29
2016-07-20T02:08:54.182Z,1011.3
2016-07-20T02:09:24.208Z,1011.29
2016-07-20T02:09:54.206Z,1011.3
2016-07-20T02:10:23.521Z,1011.27
2016-07-20T02:10:54.243Z,1011.29
2016-07-20T02:11:24.266Z,1011.28
2016-07-20T02:11:54.267Z,1011.28
2016-07-20T02:12:24.296Z,1011.26
2016-07-20T02:12:54.297Z,1011.26
2016-07-20T02:13:24.307Z,1011.26
2016-07-20T02:13:54.331Z,1011.27
2016-07-20T02:14:24.343Z,1011.28
2016-07-20T02:14:54.355Z,1011.26
2016-07-20T02:15:24.387Z,1011.23
2016-07-20T02:15:54.391Z,1011.24
2016-07-20T02:16:24.402Z,1011.21
2016-07-20T02:16:54.432Z,1011.26
2016-07-20T02:17:24.438Z,1011.25
2016-07-20T02:17:53.738Z,1011.26
2016-07-20T02:18:24.460Z,1011.26
2016-07-20T02:18:54.479Z,1011.25
2016-07-20T02:19:23.790Z,1011.26
2016-07-20T02:19:54.503Z,1011.26
2016-07-20T02:20:23.119Z,1011.22
2016-07-20T02:20:54.543Z,1011.23
2016-07-20T02:21:24.570Z,1011.23
2016-07-20T02:21:54.571Z,1011.19
2016-07-20T02:22:24.588Z,1011.21
2016-07-20T02:22:54.616Z,1011.23
2016-07-20T02:23:24.618Z,1011.21
2016-07-20T02:23:54.639Z,1011.24
2016-07-20T02:24:24.659Z,1011.2
2016-07-20T02:24:54.658Z,1011.17
2016-07-20T02:25:24.670Z,1011.15
2016-07-20T02:25:53.988Z,1011.19
2016-07-20T02:26:23.992Z,1011.15
2016-07-20T02:26:54.734Z,1011.15
2016-07-20T02:27:24.741Z,1011.15
2016-07-20T02:27:54.752Z,1011.14
2016-07-20T02:28:24.777Z,1011.13
2016-07-20T02:28:54.075Z,1011.11
2016-07-20T02:29:24.808Z,1011.16
2016-07-20T02:29:54.809Z,1011.12
2016-07-20T02:30:24.120Z,1011.11
2016-07-20T02:30:54.131Z,1011.12
2016-07-20T02:31:24.857Z,1011.09
2016-07-20T02:31:54.882Z,1011.11
2016-07-20T02:32:24.900Z,1011.13
2016-07-20T02:32:54.911Z,1011.13
2016-07-20T02:33:24.928Z,1011.11
2016-07-20T02:33:54.225Z,1011.11
2016-07-20T02:34:24.951Z,1011.1
2016-07-20T02:34:54.960Z,1011.11
2016-07-20T02:35:24.280Z,1011.1
2016-07-20T02:35:54.993Z,1011.09
2016-07-20T02:36:24.299Z,1011.12
2016-07-20T02:36:55.026Z,1011.11
2016-07-20T02:37:24.337Z,1011.11
2016-07-20T02:37:55.050Z,1011.1
2016-07-20T02:38:25.070Z,1011.1
2016-07-20T02:38:54.381Z,1011.11
2016-07-20T02:39:24.389Z,1011.11
2016-07-20T02:39:55.122Z,1011.12
2016-07-20T02:40:25.133Z,1011.12
2016-07-20T02:40:55.140Z,1011.11
2016-07-20T02:41:25.163Z,1011.15
2016-07-20T02:41:55.180Z,1011.12
2016-07-20T02:42:25.188Z,1011.13
2016-07-20T02:42:55.211Z,1011.13
2016-07-20T02:43:25.223Z,1011.12
2016-07-20T02:43:55.237Z,1011.06
2016-07-20T02:44:25.248Z,1011.14
2016-07-20T02:44:55.265Z,1011.07
2016-07-20T02:45:25.290Z,1011.1
2016-07-20T02:45:55.299Z,1011.13
2016-07-20T02:46:25.314Z,1011.16
2016-07-20T02:46:55.336Z,1011.13
2016-07-20T02:47:25.349Z,1011.12
2016-07-20T02:47:55.361Z,1011.1
2016-07-20T02:48:25.375Z,1011.12
2016-07-20T02:48:55.393Z,1011.11
2016-07-20T02:49:25.396Z,1011.12
2016-07-20T02:49:55.422Z,1011.12
2016-07-20T02:50:24.732Z,1011.12
2016-07-20T02:50:55.452Z,1011.13
2016-07-20T02:51:25.469Z,1011.09
2016-07-20T02:51:55.482Z,1011.11
2016-07-20T02:52:25.496Z,1011.09
2016-07-20T02:52:55.512Z,1011.09
2016-07-20T02:53:25.523Z,1011.1
2016-07-20T02:53:55.542Z,1011.1
2016-07-20T02:54:25.559Z,1011.07
2016-07-20T02:54:54.881Z,1011.07
2016-07-20T02:55:25.588Z,1011.07
2016-07-20T02:55:55.602Z,1011.07
2016-07-20T02:56:25.619Z,1011.05
2016-07-20T02:56:54.949Z,1011.08
2016-07-20T02:57:25.650Z,1011.08
2016-07-20T02:57:55.662Z,1011.06
2016-07-20T02:58:25.678Z,1011.04
2016-07-20T02:58:55.695Z,1011.02
2016-07-20T02:59:25.701Z,1011.05
2016-07-20T02:59:55.742Z,1011.03
2016-07-20T03:00:25.052Z,1011.01
2016-07-20T03:00:55.754Z,1011.04
2016-07-20T03:01:25.767Z,1011
2016-07-20T03:01:55.784Z,1010.99
2016-07-20T03:02:25.804Z,1010.96
2016-07-20T03:02:55.812Z,1010.98
2016-07-20T03:03:25.340Z,1010.98
2016-07-20T03:03:55.849Z,1010.97
2016-07-20T03:04:23.729Z,1011
2016-07-20T03:04:55.163Z,1011.01
2016-07-20T03:05:25.182Z,1010.98
2016-07-20T03:05:55.902Z,1010.97
2016-07-20T03:06:25.202Z,1010.97
2016-07-20T03:06:55.949Z,1010.98
2016-07-20T03:07:25.954Z,1010.94
2016-07-20T03:07:55.960Z,1010.93
2016-07-20T03:08:25.979Z,1010.94
2016-07-20T03:08:56.008Z,1010.97
2016-07-20T03:09:26.001Z,1010.97
2016-07-20T03:09:55.307Z,1010.93
2016-07-20T03:10:26.046Z,1010.93
2016-07-20T03:10:56.060Z,1010.94
2016-07-20T03:11:25.363Z,1010.96
2016-07-20T03:11:56.104Z,1010.94
2016-07-20T03:12:24.677Z,1010.94
2016-07-20T03:12:56.112Z,1010.95
2016-07-20T03:13:26.148Z,1010.95
2016-07-20T03:13:56.147Z,1010.92
2016-07-20T03:14:26.159Z,1010.96
2016-07-20T03:14:55.469Z,1010.9
2016-07-20T03:15:26.189Z,1010.93
2016-07-20T03:15:55.493Z,1010.9
2016-07-20T03:16:25.500Z,1010.93
2016-07-20T03:16:55.523Z,1010.93
2016-07-20T03:17:26.260Z,1010.91
2016-07-20T03:17:56.272Z,1010.95
2016-07-20T03:18:26.274Z,1010.92
2016-07-20T03:18:56.299Z,1010.93
2016-07-20T03:19:26.303Z,1010.94
2016-07-20T03:19:55.623Z,1010.91
2016-07-20T03:20:26.350Z,1010.9
2016-07-20T03:20:55.650Z,1010.9
2016-07-20T03:21:26.374Z,1010.97
2016-07-20T03:21:56.401Z,1010.92
2016-07-20T03:22:25.689Z,1010.96
2016-07-20T03:22:56.419Z,1010.92
2016-07-20T03:23:26.433Z,1010.96
2016-07-20T03:23:56.453Z,1010.92
2016-07-20T03:24:25.754Z,1010.94
2016-07-20T03:24:56.476Z,1010.89
2016-07-20T03:25:26.494Z,1010.95
2016-07-20T03:25:55.800Z,1010.96
2016-07-20T03:26:26.530Z,1010.93
2016-07-20T03:26:55.835Z,1010.91
2016-07-20T03:27:26.547Z,1010.93
2016-07-20T03:27:56.568Z,1010.93
2016-07-20T03:28:25.875Z,1010.91
2016-07-20T03:28:55.884Z,1010.93
2016-07-20T03:29:26.613Z,1010.92
2016-07-20T03:29:56.633Z,1010.92
2016-07-20T03:30:26.635Z,1010.94
2016-07-20T03:30:56.671Z,1010.95
2016-07-20T03:31:26.682Z,1010.92
2016-07-20T03:31:56.690Z,1010.91
2016-07-20T03:32:26.713Z,1010.91
2016-07-20T03:32:56.718Z,1010.95
2016-07-20T03:33:26.745Z,1010.96
2016-07-20T03:33:56.744Z,1010.93
2016-07-20T03:34:25.343Z,1010.93
2016-07-20T03:34:56.077Z,1010.94
2016-07-20T03:35:26.791Z,1010.96
2016-07-20T03:35:56.808Z,1010.93
2016-07-20T03:36:26.833Z,1010.92
2016-07-20T03:36:55.424Z,1010.94
2016-07-20T03:37:26.145Z,1010.92
2016-07-20T03:37:56.891Z,1010.88
2016-07-20T03:38:26.880Z,1010.91
2016-07-20T03:38:56.912Z,1010.9
2016-07-20T03:39:26.917Z,1010.88
2016-07-20T03:39:56.223Z,1010.91
2016-07-20T03:40:26.244Z,1010.93
2016-07-20T03:40:56.258Z,1010.92
2016-07-20T03:41:26.985Z,1010.93
2016-07-20T03:41:56.999Z,1010.92
2016-07-20T03:42:27.008Z,1010.91
2016-07-20T03:42:57.030Z,1010.94
2016-07-20T03:43:27.044Z,1010.93
2016-07-20T03:43:57.055Z,1010.94
2016-07-20T03:44:27.065Z,1010.91
2016-07-20T03:44:57.075Z,1010.95
2016-07-20T03:45:26.394Z,1010.9
2016-07-20T03:45:57.115Z,1010.93
2016-07-20T03:46:27.130Z,1010.91
2016-07-20T03:46:57.146Z,1010.9
2016-07-20T03:47:27.151Z,1010.9
2016-07-20T03:47:57.176Z,1010.9
2016-07-20T03:48:27.191Z,1010.93
2016-07-20T03:48:57.207Z,1010.91
2016-07-20T03:49:27.212Z,1010.95
2016-07-20T03:49:57.237Z,1010.91
2016-07-20T03:50:27.255Z,1010.94
2016-07-20T03:50:57.258Z,1010.92
2016-07-20T03:51:27.290Z,1010.89
2016-07-20T03:51:57.317Z,1010.93
2016-07-20T03:52:26.595Z,1010.91
2016-07-20T03:52:57.334Z,1010.88
2016-07-20T03:53:27.346Z,1010.92
2016-07-20T03:53:57.352Z,1010.93
2016-07-20T03:54:27.375Z,1010.93
2016-07-20T03:54:56.685Z,1010.9
2016-07-20T03:55:27.391Z,1010.9
2016-07-20T03:55:57.418Z,1010.9
2016-07-20T03:56:27.428Z,1010.9
2016-07-20T03:56:57.453Z,1010.91
2016-07-20T03:57:27.467Z,1010.92
2016-07-20T03:57:57.478Z,1010.86
2016-07-20T03:58:27.500Z,1010.9
2016-07-20T03:58:57.502Z,1010.87
2016-07-20T03:59:27.526Z,1010.86
2016-07-20T03:59:57.535Z,1010.84
2016-07-20T04:00:27.559Z,1010.85
2016-07-20T04:00:57.572Z,1010.87
2016-07-20T04:01:27.596Z,1010.89
2016-07-20T04:01:57.597Z,1010.86
2016-07-20T04:02:27.615Z,1010.85
2016-07-20T04:02:56.210Z,1010.86
2016-07-20T04:03:26.935Z,1010.87
2016-07-20T04:03:57.662Z,1010.87
2016-07-20T04:04:27.673Z,1010.88
2016-07-20T04:04:55.562Z,1010.86
2016-07-20T04:05:41.892Z,1010.83
2016-07-20T04:05:57.719Z,1010.82
2016-07-20T04:06:26.314Z,1010.82
2016-07-20T04:06:57.744Z,1010.82
2016-07-20T04:07:27.757Z,1010.82
2016-07-20T04:07:57.784Z,1010.84
2016-07-20T04:08:27.800Z,1010.86
2016-07-20T04:08:57.814Z,1010.84
2016-07-20T04:09:27.831Z,1010.88
2016-07-20T04:09:57.847Z,1010.8
2016-07-20T04:10:27.857Z,1010.85
2016-07-20T04:10:57.871Z,1010.8
2016-07-20T04:11:27.885Z,1010.81
2016-07-20T04:11:57.198Z,1010.81
2016-07-20T04:12:27.919Z,1010.84
2016-07-20T04:12:57.934Z,1010.83
2016-07-20T04:13:27.947Z,1010.83
2016-07-20T04:13:57.954Z,1010.8
2016-07-20T04:14:27.982Z,1010.8
2016-07-20T04:14:56.571Z,1010.82
2016-07-20T04:15:28.009Z,1010.84
2016-07-20T04:15:58.019Z,1010.77
2016-07-20T04:16:28.044Z,1010.8
2016-07-20T04:16:57.341Z,1010.78
2016-07-20T04:17:28.066Z,1010.77
2016-07-20T04:17:58.074Z,1010.8
2016-07-20T04:18:28.109Z,1010.79
2016-07-20T04:18:57.397Z,1010.82
2016-07-20T04:19:28.126Z,1010.78
2016-07-20T04:19:58.147Z,1010.81
2016-07-20T04:20:28.161Z,1010.78
2016-07-20T04:20:58.165Z,1010.79
2016-07-20T04:21:28.204Z,1010.78
2016-07-20T04:21:58.209Z,1010.73
2016-07-20T04:22:28.218Z,1010.76
2016-07-20T04:22:58.231Z,1010.69
2016-07-20T04:23:28.251Z,1010.75
2016-07-20T04:23:56.850Z,1010.72
2016-07-20T04:24:28.274Z,1010.74
2016-07-20T04:24:58.306Z,1010.75
2016-07-20T04:25:28.313Z,1010.78
2016-07-20T04:25:58.315Z,1010.75
2016-07-20T04:26:28.339Z,1010.75
2016-07-20T04:26:57.657Z,1010.73
2016-07-20T04:27:28.376Z,1010.72
2016-07-20T04:27:58.383Z,1010.74
2016-07-20T04:28:28.399Z,1010.74
2016-07-20T04:28:58.409Z,1010.75
2016-07-20T04:29:28.436Z,1010.76
2016-07-20T04:29:58.460Z,1010.75
2016-07-20T04:30:28.464Z,1010.71
2016-07-20T04:30:58.473Z,1010.74
2016-07-20T04:31:28.508Z,1010.75
2016-07-20T04:31:58.522Z,1010.73
2016-07-20T04:32:28.526Z,1010.73
2016-07-20T04:32:58.537Z,1010.74
2016-07-20T04:33:28.553Z,1010.75
2016-07-20T04:33:58.572Z,1010.73
2016-07-20T04:34:28.583Z,1010.73
2016-07-20T04:34:58.594Z,1010.75
2016-07-20T04:35:28.625Z,1010.75
2016-07-20T04:35:58.628Z,1010.71
2016-07-20T04:36:28.649Z,1010.7
2016-07-20T04:36:58.659Z,1010.71
2016-07-20T04:37:28.666Z,1010.7
2016-07-20T04:37:58.689Z,1010.7
2016-07-20T04:38:28.723Z,1010.69
2016-07-20T04:38:58.727Z,1010.7
2016-07-20T04:39:27.321Z,1010.65
2016-07-20T04:39:58.771Z,1010.68
2016-07-20T04:40:28.768Z,1010.67
2016-07-20T04:40:58.786Z,1010.65
2016-07-20T04:41:28.090Z,1010.69
2016-07-20T04:41:58.818Z,1010.69
2016-07-20T04:42:28.835Z,1010.67
2016-07-20T04:42:58.847Z,1010.67
2016-07-20T04:43:28.859Z,1010.7
2016-07-20T04:43:58.877Z,1010.67
2016-07-20T04:44:28.895Z,1010.68
2016-07-20T04:44:58.909Z,1010.68
2016-07-20T04:45:28.222Z,1010.63
2016-07-20T04:45:58.230Z,1010.67
2016-07-20T04:46:28.959Z,1010.63
2016-07-20T04:46:58.988Z,1010.66
2016-07-20T04:47:28.274Z,1010.64
2016-07-20T04:47:58.997Z,1010.62
2016-07-20T04:48:29.007Z,1010.67
2016-07-20T04:48:59.033Z,1010.65
2016-07-20T04:49:29.043Z,1010.63
2016-07-20T04:49:59.062Z,1010.63
2016-07-20T04:50:29.076Z,1010.65
2016-07-20T04:50:59.089Z,1010.62
2016-07-20T04:51:29.097Z,1010.6
2016-07-20T04:51:58.417Z,1010.61
2016-07-20T04:52:29.151Z,1010.6
2016-07-20T04:52:58.433Z,1010.61
2016-07-20T04:53:29.167Z,1010.59
2016-07-20T04:53:59.181Z,1010.6
2016-07-20T04:54:29.196Z,1010.6
2016-07-20T04:54:59.208Z,1010.6
2016-07-20T04:55:28.519Z,1010.61
2016-07-20T04:55:59.249Z,1010.61
2016-07-20T04:56:29.253Z,1010.62
2016-07-20T04:56:59.274Z,1010.61
2016-07-20T04:57:28.596Z,1010.62
2016-07-20T04:57:58.595Z,1010.61
2016-07-20T04:58:29.315Z,1010.59
2016-07-20T04:58:59.333Z,1010.64
2016-07-20T04:59:28.646Z,1010.6
2016-07-20T04:59:59.368Z,1010.63
2016-07-20T05:00:29.377Z,1010.56
2016-07-20T05:00:59.405Z,1010.6
2016-07-20T05:01:29.406Z,1010.57
2016-07-20T05:01:59.427Z,1010.62
2016-07-20T05:02:29.455Z,1010.58
2016-07-20T05:02:58.742Z,1010.61
2016-07-20T05:03:29.469Z,1010.61
2016-07-20T05:03:59.490Z,1010.55
2016-07-20T05:04:29.512Z,1010.6
2016-07-20T05:04:59.524Z,1010.57
2016-07-20T05:05:29.544Z,1010.6
2016-07-20T05:05:59.550Z,1010.6
2016-07-20T05:06:29.564Z,1010.55
2016-07-20T05:06:58.875Z,1010.53
2016-07-20T05:07:28.894Z,1010.56
2016-07-20T05:07:59.630Z,1010.54
2016-07-20T05:08:29.638Z,1010.54
2016-07-20T05:08:59.648Z,1010.53
2016-07-20T05:09:29.664Z,1010.52
2016-07-20T05:09:59.665Z,1010.53
2016-07-20T05:10:29.701Z,1010.56
2016-07-20T05:10:59.004Z,1010.52
2016-07-20T05:11:29.724Z,1010.54
2016-07-20T05:11:59.736Z,1010.54
2016-07-20T05:12:29.750Z,1010.56
2016-07-20T05:12:59.779Z,1010.56
2016-07-20T05:13:29.779Z,1010.55
2016-07-20T05:13:59.798Z,1010.53
2016-07-20T05:14:29.108Z,1010.53
2016-07-20T05:14:59.119Z,1010.53
2016-07-20T05:15:29.850Z,1010.54
2016-07-20T05:15:59.151Z,1010.55
2016-07-20T05:16:29.168Z,1010.51
2016-07-20T05:16:59.890Z,1010.46
2016-07-20T05:17:29.202Z,1010.48
2016-07-20T05:17:59.931Z,1010.52
2016-07-20T05:18:29.933Z,1010.48
2016-07-20T05:18:59.241Z,1010.48
2016-07-20T05:19:29.256Z,1010.49
2016-07-20T05:19:59.990Z,1010.49
2016-07-20T05:20:30.000Z,1010.48
2016-07-20T05:21:00.027Z,1010.47
2016-07-20T05:21:30.037Z,1010.49
2016-07-20T05:21:58.639Z,1010.5
2016-07-20T05:22:30.068Z,1010.47
2016-07-20T05:23:00.080Z,1010.47
2016-07-20T05:23:30.096Z,1010.47
2016-07-20T05:24:00.113Z,1010.46
2016-07-20T05:24:30.121Z,1010.47
2016-07-20T05:25:00.140Z,1010.44
2016-07-20T05:25:30.161Z,1010.47
2016-07-20T05:26:00.175Z,1010.46
2016-07-20T05:26:30.187Z,1010.45
2016-07-20T05:26:58.779Z,1010.46
2016-07-20T05:27:30.212Z,1010.44
2016-07-20T05:28:00.237Z,1010.47
2016-07-20T05:28:30.249Z,1010.43
2016-07-20T05:29:00.262Z,1010.44
2016-07-20T05:29:30.280Z,1010.44
2016-07-20T05:30:00.290Z,1010.44
2016-07-20T05:30:28.888Z,1010.44
2016-07-20T05:30:59.625Z,1010.44
2016-07-20T05:31:30.368Z,1010.45
2016-07-20T05:31:59.641Z,1010.4
2016-07-20T05:32:30.372Z,1010.42
2016-07-20T05:33:00.393Z,1010.39
2016-07-20T05:33:30.412Z,1010.42
2016-07-20T05:33:59.707Z,1010.43
2016-07-20T05:34:30.460Z,1010.41
2016-07-20T05:34:59.750Z,1010.39
2016-07-20T05:35:29.052Z,1010.41
2016-07-20T05:36:00.487Z,1010.42
2016-07-20T05:36:30.505Z,1010.43
2016-07-20T05:37:00.509Z,1010.4
2016-07-20T05:37:30.531Z,1010.4
2016-07-20T05:38:00.549Z,1010.4
2016-07-20T05:38:30.570Z,1010.41
2016-07-20T05:39:00.578Z,1010.38
2016-07-20T05:39:30.595Z,1010.38
2016-07-20T05:40:00.610Z,1010.4
2016-07-20T05:40:30.629Z,1010.33
2016-07-20T05:40:59.948Z,1010.39
2016-07-20T05:41:30.653Z,1010.35
2016-07-20T05:42:00.665Z,1010.36
2016-07-20T05:42:30.696Z,1010.36
2016-07-20T05:43:00.703Z,1010.37
2016-07-20T05:43:30.006Z,1010.36
2016-07-20T05:43:59.318Z,1010.39
2016-07-20T05:44:30.762Z,1010.35
2016-07-20T05:45:00.051Z,1010.36
2016-07-20T05:45:30.785Z,1010.38
2016-07-20T05:46:00.829Z,1010.39
2016-07-20T05:46:30.832Z,1010.37
2016-07-20T05:47:00.826Z,1010.37
2016-07-20T05:47:30.839Z,1010.36
2016-07-20T05:48:00.873Z,1010.38
2016-07-20T05:48:30.879Z,1010.36
2016-07-20T05:49:00.904Z,1010.37
2016-07-20T05:49:30.912Z,1010.34
2016-07-20T05:50:00.922Z,1010.36
2016-07-20T05:50:30.941Z,1010.38
2016-07-20T05:51:00.963Z,1010.36
2016-07-20T05:51:30.967Z,1010.39
2016-07-20T05:52:00.980Z,1010.36
2016-07-20T05:52:30.997Z,1010.36
2016-07-20T05:53:01.010Z,1010.38
2016-07-20T05:53:30.329Z,1010.34
2016-07-20T05:54:01.051Z,1010.35
2016-07-20T05:54:31.059Z,1010.33
2016-07-20T05:55:00.372Z,1010.33
2016-07-20T05:55:30.391Z,1010.32
2016-07-20T05:56:01.133Z,1010.33
2016-07-20T05:56:31.132Z,1010.3
2016-07-20T05:57:01.152Z,1010.32
2016-07-20T05:57:30.452Z,1010.3
2016-07-20T05:58:00.462Z,1010.32
2016-07-20T05:58:31.218Z,1010.33
2016-07-20T05:59:00.508Z,1010.3
2016-07-20T05:59:31.219Z,1010.34
2016-07-20T06:00:01.242Z,1010.35
2016-07-20T06:00:30.549Z,1010.3
2016-07-20T06:01:01.260Z,1010.29
2016-07-20T06:01:31.299Z,1010.3
2016-07-20T06:02:01.303Z,1010.24
2016-07-20T06:02:31.331Z,1010.29
2016-07-20T06:03:00.622Z,1010.29
2016-07-20T06:03:31.363Z,1010.27
2016-07-20T06:04:01.377Z,1010.27
2016-07-20T06:04:31.381Z,1010.26